sensor_id;sensor_type;location;lat;lon;timestamp;P1;durP1;ratioP1;P2;durP2;ratioP2
38083;SDS011;23894;51.466;7.444;2023-07-09T00:01:17;6.68;;;3.78;;
38083;SDS011;23894;51.466;7.444;2023-07-09T00:03:18;7.28;;;4.10;;
38083;SDS011;23894;51.466;7.444;2023-07-09T00:05:19;10.00;;;4.05;;
38083;SDS011;23894;51.466;7.444;2023-07-09T00:07:27;7.60;;;4.20;;
38083;SDS011;23894;51.466;7.444;2023-07-09T00:09:29;8.05;;;4.50;;
38083;SDS011;23894;51.466;7.444;2023-07-09T00:11:30;8.20;;;4.35;;
38083;SDS011;23894;51.466;7.444;2023-07-09T00:13:31;6.38;;;3.80;;
38083;SDS011;23894;51.466;7.444;2023-07-09T00:15:32;9.30;;;4.47;;
38083;SDS011;23894;51.466;7.444;2023-07-09T00:17:33;6.63;;;3.78;;
38083;SDS011;23894;51.466;7.444;2023-07-09T00:19:34;7.35;;;4.20;;
38083;SDS011;23894;51.466;7.444;2023-07-09T00:21:35;7.65;;;4.50;;
38083;SDS011;23894;51.466;7.444;2023-07-09T00:23:36;7.72;;;4.35;;
38083;SDS011;23894;51.466;7.444;2023-07-09T00:25:42;8.93;;;4.07;;
38083;SDS011;23894;51.466;7.444;2023-07-09T00:27:44;7.30;;;4.03;;
38083;SDS011;23894;51.466;7.444;2023-07-09T00:29:48;9.63;;;3.83;;
38083;SDS011;23894;51.466;7.444;2023-07-09T00:31:49;7.82;;;4.20;;
38083;SDS011;23894;51.466;7.444;2023-07-09T00:33:50;7.75;;;4.28;;
38083;SDS011;23894;51.466;7.444;2023-07-09T00:35:51;9.10;;;4.45;;
38083;SDS011;23894;51.466;7.444;2023-07-09T00:37:52;8.23;;;3.97;;
38083;SDS011;23894;51.466;7.444;2023-07-09T00:39:53;7.47;;;3.92;;
38083;SDS011;23894;51.466;7.444;2023-07-09T00:41:54;7.35;;;4.10;;
38083;SDS011;23894;51.466;7.444;2023-07-09T00:43:55;8.00;;;4.00;;
38083;SDS011;23894;51.466;7.444;2023-07-09T00:48:14;8.20;;;3.78;;
38083;SDS011;23894;51.466;7.444;2023-07-09T00:50:21;7.75;;;4.22;;
38083;SDS011;23894;51.466;7.444;2023-07-09T00:52:25;8.20;;;4.13;;
38083;SDS011;23894;51.466;7.444;2023-07-09T00:54:34;7.07;;;4.03;;
38083;SDS011;23894;51.466;7.444;2023-07-09T00:56:38;7.07;;;3.92;;
38083;SDS011;23894;51.466;7.444;2023-07-09T00:58:40;7.43;;;3.50;;
38083;SDS011;23894;51.466;7.444;2023-07-09T01:00:47;9.73;;;4.40;;
38083;SDS011;23894;51.466;7.444;2023-07-09T01:02:52;8.48;;;3.97;;
38083;SDS011;23894;51.466;7.444;2023-07-09T01:04:54;8.27;;;4.43;;
38083;SDS011;23894;51.466;7.444;2023-07-09T01:06:56;7.50;;;3.83;;
38083;SDS011;23894;51.466;7.444;2023-07-09T01:08:58;7.07;;;4.28;;
38083;SDS011;23894;51.466;7.444;2023-07-09T01:11:00;8.95;;;4.05;;
38083;SDS011;23894;51.466;7.444;2023-07-09T01:13:01;8.20;;;3.80;;
38083;SDS011;23894;51.466;7.444;2023-07-09T01:15:03;7.65;;;4.30;;
38083;SDS011;23894;51.466;7.444;2023-07-09T01:17:05;8.07;;;4.05;;
38083;SDS011;23894;51.466;7.444;2023-07-09T01:19:07;7.63;;;3.80;;
38083;SDS011;23894;51.466;7.444;2023-07-09T01:21:09;8.32;;;4.35;;
38083;SDS011;23894;51.466;7.444;2023-07-09T01:23:15;8.50;;;4.55;;
38083;SDS011;23894;51.466;7.444;2023-07-09T01:25:17;7.47;;;4.22;;
38083;SDS011;23894;51.466;7.444;2023-07-09T01:27:20;6.88;;;3.53;;
38083;SDS011;23894;51.466;7.444;2023-07-09T01:29:21;8.50;;;3.97;;
38083;SDS011;23894;51.466;7.444;2023-07-09T01:31:22;8.88;;;4.00;;
38083;SDS011;23894;51.466;7.444;2023-07-09T01:33:23;9.50;;;4.55;;
38083;SDS011;23894;51.466;7.444;2023-07-09T01:35:25;7.78;;;4.28;;
38083;SDS011;23894;51.466;7.444;2023-07-09T01:37:27;7.55;;;4.18;;
38083;SDS011;23894;51.466;7.444;2023-07-09T01:39:28;7.80;;;3.90;;
38083;SDS011;23894;51.466;7.444;2023-07-09T01:41:29;7.15;;;3.85;;
38083;SDS011;23894;51.466;7.444;2023-07-09T01:43:34;8.40;;;3.65;;
38083;SDS011;23894;51.466;7.444;2023-07-09T01:45:36;7.85;;;3.85;;
38083;SDS011;23894;51.466;7.444;2023-07-09T01:47:38;9.20;;;4.10;;
38083;SDS011;23894;51.466;7.444;2023-07-09T01:49:39;7.93;;;3.97;;
38083;SDS011;23894;51.466;7.444;2023-07-09T01:51:40;8.35;;;3.90;;
38083;SDS011;23894;51.466;7.444;2023-07-09T01:53:41;7.63;;;4.18;;
38083;SDS011;23894;51.466;7.444;2023-07-09T01:55:44;6.47;;;3.90;;
38083;SDS011;23894;51.466;7.444;2023-07-09T01:57:45;9.10;;;4.35;;
38083;SDS011;23894;51.466;7.444;2023-07-09T01:59:46;8.57;;;4.22;;
38083;SDS011;23894;51.466;7.444;2023-07-09T02:01:47;7.95;;;3.92;;
38083;SDS011;23894;51.466;7.444;2023-07-09T02:03:48;8.63;;;4.43;;
38083;SDS011;23894;51.466;7.444;2023-07-09T02:05:49;7.28;;;4.18;;
38083;SDS011;23894;51.466;7.444;2023-07-09T02:07:51;7.85;;;3.88;;
38083;SDS011;23894;51.466;7.444;2023-07-09T02:09:52;8.20;;;4.10;;
38083;SDS011;23894;51.466;7.444;2023-07-09T02:11:53;7.88;;;4.30;;
38083;SDS011;23894;51.466;7.444;2023-07-09T02:13:54;7.82;;;4.07;;
38083;SDS011;23894;51.466;7.444;2023-07-09T02:15:55;9.15;;;4.32;;
38083;SDS011;23894;51.466;7.444;2023-07-09T02:17:56;7.40;;;4.60;;
38083;SDS011;23894;51.466;7.444;2023-07-09T02:19:58;7.95;;;4.60;;
38083;SDS011;23894;51.466;7.444;2023-07-09T02:21:59;7.50;;;4.65;;
38083;SDS011;23894;51.466;7.444;2023-07-09T02:24:00;8.73;;;4.72;;
38083;SDS011;23894;51.466;7.444;2023-07-09T02:26:02;8.38;;;4.63;;
38083;SDS011;23894;51.466;7.444;2023-07-09T02:28:03;8.23;;;4.80;;
38083;SDS011;23894;51.466;7.444;2023-07-09T02:30:05;7.75;;;4.03;;
38083;SDS011;23894;51.466;7.444;2023-07-09T02:32:06;8.35;;;4.20;;
38083;SDS011;23894;51.466;7.444;2023-07-09T02:34:08;8.00;;;4.47;;
38083;SDS011;23894;51.466;7.444;2023-07-09T02:36:09;8.05;;;4.28;;
38083;SDS011;23894;51.466;7.444;2023-07-09T02:38:10;12.65;;;4.68;;
38083;SDS011;23894;51.466;7.444;2023-07-09T02:40:11;8.63;;;4.30;;
38083;SDS011;23894;51.466;7.444;2023-07-09T02:42:13;9.48;;;4.30;;
38083;SDS011;23894;51.466;7.444;2023-07-09T02:44:15;8.23;;;4.25;;
38083;SDS011;23894;51.466;7.444;2023-07-09T02:46:16;11.13;;;4.93;;
38083;SDS011;23894;51.466;7.444;2023-07-09T02:48:17;11.85;;;4.43;;
38083;SDS011;23894;51.466;7.444;2023-07-09T02:50:18;9.35;;;4.68;;
38083;SDS011;23894;51.466;7.444;2023-07-09T02:52:19;6.50;;;4.13;;
38083;SDS011;23894;51.466;7.444;2023-07-09T02:54:20;10.82;;;5.20;;
38083;SDS011;23894;51.466;7.444;2023-07-09T02:56:21;8.60;;;4.30;;
38083;SDS011;23894;51.466;7.444;2023-07-09T02:58:22;6.95;;;4.75;;
38083;SDS011;23894;51.466;7.444;2023-07-09T03:00:23;7.60;;;4.72;;
38083;SDS011;23894;51.466;7.444;2023-07-09T03:02:24;9.10;;;4.60;;
38083;SDS011;23894;51.466;7.444;2023-07-09T03:04:25;8.10;;;4.22;;
38083;SDS011;23894;51.466;7.444;2023-07-09T03:06:26;7.40;;;4.35;;
38083;SDS011;23894;51.466;7.444;2023-07-09T03:08:27;7.88;;;4.90;;
38083;SDS011;23894;51.466;7.444;2023-07-09T03:10:28;8.90;;;4.68;;
38083;SDS011;23894;51.466;7.444;2023-07-09T03:12:29;9.65;;;4.22;;
38083;SDS011;23894;51.466;7.444;2023-07-09T03:14:30;8.48;;;4.75;;
38083;SDS011;23894;51.466;7.444;2023-07-09T03:16:32;7.95;;;4.55;;
38083;SDS011;23894;51.466;7.444;2023-07-09T03:18:33;7.43;;;4.80;;
38083;SDS011;23894;51.466;7.444;2023-07-09T03:20:34;8.25;;;4.15;;
38083;SDS011;23894;51.466;7.444;2023-07-09T03:22:35;8.88;;;4.50;;
38083;SDS011;23894;51.466;7.444;2023-07-09T03:24:35;7.28;;;4.38;;
38083;SDS011;23894;51.466;7.444;2023-07-09T03:26:36;9.00;;;4.55;;
38083;SDS011;23894;51.466;7.444;2023-07-09T03:28:37;10.43;;;4.50;;
38083;SDS011;23894;51.466;7.444;2023-07-09T03:30:45;8.82;;;5.07;;
38083;SDS011;23894;51.466;7.444;2023-07-09T03:32:46;8.32;;;4.72;;
38083;SDS011;23894;51.466;7.444;2023-07-09T03:34:48;8.52;;;4.60;;
38083;SDS011;23894;51.466;7.444;2023-07-09T03:36:49;11.57;;;4.53;;
38083;SDS011;23894;51.466;7.444;2023-07-09T03:38:50;7.53;;;4.60;;
38083;SDS011;23894;51.466;7.444;2023-07-09T03:40:51;8.05;;;4.82;;
38083;SDS011;23894;51.466;7.444;2023-07-09T03:42:53;8.38;;;4.93;;
38083;SDS011;23894;51.466;7.444;2023-07-09T03:44:54;10.70;;;4.70;;
38083;SDS011;23894;51.466;7.444;2023-07-09T03:46:55;10.75;;;4.57;;
38083;SDS011;23894;51.466;7.444;2023-07-09T03:48:57;8.93;;;4.68;;
38083;SDS011;23894;51.466;7.444;2023-07-09T03:50:59;7.55;;;4.45;;
38083;SDS011;23894;51.466;7.444;2023-07-09T03:53:00;10.48;;;4.75;;
38083;SDS011;23894;51.466;7.444;2023-07-09T03:55:01;9.40;;;4.57;;
38083;SDS011;23894;51.466;7.444;2023-07-09T03:57:04;7.72;;;4.65;;
38083;SDS011;23894;51.466;7.444;2023-07-09T03:59:06;8.18;;;4.70;;
38083;SDS011;23894;51.466;7.444;2023-07-09T04:01:07;7.38;;;4.28;;
38083;SDS011;23894;51.466;7.444;2023-07-09T04:03:08;9.20;;;4.70;;
38083;SDS011;23894;51.466;7.444;2023-07-09T04:05:10;7.50;;;4.45;;
38083;SDS011;23894;51.466;7.444;2023-07-09T04:07:11;7.88;;;4.57;;
38083;SDS011;23894;51.466;7.444;2023-07-09T04:09:12;8.32;;;4.82;;
38083;SDS011;23894;51.466;7.444;2023-07-09T04:11:14;9.40;;;5.22;;
38083;SDS011;23894;51.466;7.444;2023-07-09T04:15:16;8.52;;;4.60;;
38083;SDS011;23894;51.466;7.444;2023-07-09T04:17:17;8.07;;;5.20;;
38083;SDS011;23894;51.466;7.444;2023-07-09T04:19:18;9.40;;;5.22;;
38083;SDS011;23894;51.466;7.444;2023-07-09T04:21:19;8.63;;;4.03;;
38083;SDS011;23894;51.466;7.444;2023-07-09T04:23:20;9.88;;;4.50;;
38083;SDS011;23894;51.466;7.444;2023-07-09T04:25:21;8.30;;;4.47;;
38083;SDS011;23894;51.466;7.444;2023-07-09T04:29:27;8.38;;;5.18;;
38083;SDS011;23894;51.466;7.444;2023-07-09T04:33:28;10.75;;;5.10;;
38083;SDS011;23894;51.466;7.444;2023-07-09T04:35:29;7.88;;;4.50;;
38083;SDS011;23894;51.466;7.444;2023-07-09T04:37:30;7.80;;;4.95;;
38083;SDS011;23894;51.466;7.444;2023-07-09T04:39:32;9.18;;;5.22;;
38083;SDS011;23894;51.466;7.444;2023-07-09T04:41:33;8.75;;;5.10;;
38083;SDS011;23894;51.466;7.444;2023-07-09T04:43:34;8.73;;;4.60;;
38083;SDS011;23894;51.466;7.444;2023-07-09T04:45:35;10.77;;;5.18;;
38083;SDS011;23894;51.466;7.444;2023-07-09T04:47:36;7.72;;;4.63;;
38083;SDS011;23894;51.466;7.444;2023-07-09T04:49:37;9.18;;;4.97;;
38083;SDS011;23894;51.466;7.444;2023-07-09T04:51:38;10.57;;;5.22;;
38083;SDS011;23894;51.466;7.444;2023-07-09T04:53:39;8.80;;;5.20;;
38083;SDS011;23894;51.466;7.444;2023-07-09T04:55:42;7.97;;;4.78;;
38083;SDS011;23894;51.466;7.444;2023-07-09T04:57:44;10.20;;;4.80;;
38083;SDS011;23894;51.466;7.444;2023-07-09T04:59:47;9.10;;;4.93;;
38083;SDS011;23894;51.466;7.444;2023-07-09T05:01:51;8.35;;;4.68;;
38083;SDS011;23894;51.466;7.444;2023-07-09T05:03:54;10.52;;;5.05;;
38083;SDS011;23894;51.466;7.444;2023-07-09T05:05:55;9.57;;;5.05;;
38083;SDS011;23894;51.466;7.444;2023-07-09T05:07:56;9.38;;;4.80;;
38083;SDS011;23894;51.466;7.444;2023-07-09T05:09:57;8.82;;;5.18;;
38083;SDS011;23894;51.466;7.444;2023-07-09T05:11:59;8.65;;;5.03;;
38083;SDS011;23894;51.466;7.444;2023-07-09T05:14:00;9.93;;;4.93;;
38083;SDS011;23894;51.466;7.444;2023-07-09T05:18:01;9.23;;;5.10;;
38083;SDS011;23894;51.466;7.444;2023-07-09T05:20:02;8.48;;;5.32;;
38083;SDS011;23894;51.466;7.444;2023-07-09T05:22:04;10.48;;;5.53;;
38083;SDS011;23894;51.466;7.444;2023-07-09T05:24:05;9.30;;;5.57;;
38083;SDS011;23894;51.466;7.444;2023-07-09T05:26:06;9.73;;;5.63;;
38083;SDS011;23894;51.466;7.444;2023-07-09T05:28:08;10.77;;;5.70;;
38083;SDS011;23894;51.466;7.444;2023-07-09T05:30:09;10.07;;;6.07;;
38083;SDS011;23894;51.466;7.444;2023-07-09T05:32:11;8.65;;;5.18;;
38083;SDS011;23894;51.466;7.444;2023-07-09T05:34:12;8.63;;;5.13;;
38083;SDS011;23894;51.466;7.444;2023-07-09T05:36:12;9.18;;;5.78;;
38083;SDS011;23894;51.466;7.444;2023-07-09T05:38:15;11.02;;;5.85;;
38083;SDS011;23894;51.466;7.444;2023-07-09T05:40:16;11.18;;;5.55;;
38083;SDS011;23894;51.466;7.444;2023-07-09T05:42:17;13.57;;;6.38;;
38083;SDS011;23894;51.466;7.444;2023-07-09T05:44:18;11.52;;;6.00;;
38083;SDS011;23894;51.466;7.444;2023-07-09T05:46:21;16.63;;;6.35;;
38083;SDS011;23894;51.466;7.444;2023-07-09T05:48:22;11.10;;;5.88;;
38083;SDS011;23894;51.466;7.444;2023-07-09T05:50:24;10.25;;;5.82;;
38083;SDS011;23894;51.466;7.444;2023-07-09T05:52:25;11.02;;;5.82;;
38083;SDS011;23894;51.466;7.444;2023-07-09T05:54:28;8.52;;;5.85;;
38083;SDS011;23894;51.466;7.444;2023-07-09T05:56:29;12.73;;;6.30;;
38083;SDS011;23894;51.466;7.444;2023-07-09T05:58:30;10.48;;;5.82;;
38083;SDS011;23894;51.466;7.444;2023-07-09T06:00:31;8.48;;;5.30;;
38083;SDS011;23894;51.466;7.444;2023-07-09T06:02:32;13.80;;;6.00;;
38083;SDS011;23894;51.466;7.444;2023-07-09T06:04:33;10.00;;;5.35;;
38083;SDS011;23894;51.466;7.444;2023-07-09T06:06:34;11.68;;;6.22;;
38083;SDS011;23894;51.466;7.444;2023-07-09T06:08:35;12.48;;;5.82;;
38083;SDS011;23894;51.466;7.444;2023-07-09T06:10:36;10.10;;;5.90;;
38083;SDS011;23894;51.466;7.444;2023-07-09T06:12:37;10.00;;;5.47;;
38083;SDS011;23894;51.466;7.444;2023-07-09T06:14:41;11.25;;;6.15;;
38083;SDS011;23894;51.466;7.444;2023-07-09T06:16:42;8.73;;;5.50;;
38083;SDS011;23894;51.466;7.444;2023-07-09T06:18:43;9.98;;;6.05;;
38083;SDS011;23894;51.466;7.444;2023-07-09T06:20:51;11.70;;;5.78;;
38083;SDS011;23894;51.466;7.444;2023-07-09T06:22:52;9.60;;;5.18;;
38083;SDS011;23894;51.466;7.444;2023-07-09T06:24:53;10.00;;;5.45;;
38083;SDS011;23894;51.466;7.444;2023-07-09T06:26:55;13.40;;;5.50;;
38083;SDS011;23894;51.466;7.444;2023-07-09T06:28:55;10.73;;;5.78;;
38083;SDS011;23894;51.466;7.444;2023-07-09T06:30:57;11.23;;;5.60;;
38083;SDS011;23894;51.466;7.444;2023-07-09T06:32:58;9.80;;;5.22;;
38083;SDS011;23894;51.466;7.444;2023-07-09T06:34:59;9.85;;;5.45;;
38083;SDS011;23894;51.466;7.444;2023-07-09T06:37:00;11.73;;;6.10;;
38083;SDS011;23894;51.466;7.444;2023-07-09T06:39:01;10.60;;;5.68;;
38083;SDS011;23894;51.466;7.444;2023-07-09T06:41:02;11.10;;;5.93;;
38083;SDS011;23894;51.466;7.444;2023-07-09T06:43:05;9.93;;;6.18;;
38083;SDS011;23894;51.466;7.444;2023-07-09T06:45:06;9.95;;;5.45;;
38083;SDS011;23894;51.466;7.444;2023-07-09T06:47:09;14.02;;;6.80;;
38083;SDS011;23894;51.466;7.444;2023-07-09T06:49:11;13.70;;;6.20;;
38083;SDS011;23894;51.466;7.444;2023-07-09T06:51:15;9.98;;;5.47;;
38083;SDS011;23894;51.466;7.444;2023-07-09T06:53:17;9.90;;;5.55;;
38083;SDS011;23894;51.466;7.444;2023-07-09T06:55:21;12.57;;;6.10;;
38083;SDS011;23894;51.466;7.444;2023-07-09T06:57:25;12.45;;;6.20;;
38083;SDS011;23894;51.466;7.444;2023-07-09T06:59:27;9.45;;;5.32;;
38083;SDS011;23894;51.466;7.444;2023-07-09T07:01:29;10.57;;;5.93;;
38083;SDS011;23894;51.466;7.444;2023-07-09T07:03:32;11.10;;;5.43;;
38083;SDS011;23894;51.466;7.444;2023-07-09T07:05:34;12.98;;;5.47;;
38083;SDS011;23894;51.466;7.444;2023-07-09T07:07:35;11.38;;;5.13;;
38083;SDS011;23894;51.466;7.444;2023-07-09T07:09:36;9.50;;;5.57;;
38083;SDS011;23894;51.466;7.444;2023-07-09T07:11:36;10.13;;;5.78;;
38083;SDS011;23894;51.466;7.444;2023-07-09T07:13:38;9.48;;;5.15;;
38083;SDS011;23894;51.466;7.444;2023-07-09T07:15:40;9.70;;;5.32;;
38083;SDS011;23894;51.466;7.444;2023-07-09T07:17:41;10.80;;;5.20;;
38083;SDS011;23894;51.466;7.444;2023-07-09T07:19:42;12.50;;;5.78;;
38083;SDS011;23894;51.466;7.444;2023-07-09T07:21:42;11.75;;;5.28;;
38083;SDS011;23894;51.466;7.444;2023-07-09T07:23:45;13.23;;;5.82;;
38083;SDS011;23894;51.466;7.444;2023-07-09T07:25:47;11.48;;;5.30;;
38083;SDS011;23894;51.466;7.444;2023-07-09T07:27:48;9.27;;;5.20;;
38083;SDS011;23894;51.466;7.444;2023-07-09T07:29:51;11.13;;;5.65;;
38083;SDS011;23894;51.466;7.444;2023-07-09T07:31:53;11.77;;;5.05;;
38083;SDS011;23894;51.466;7.444;2023-07-09T07:33:56;12.43;;;5.85;;
38083;SDS011;23894;51.466;7.444;2023-07-09T07:35:58;10.00;;;5.13;;
38083;SDS011;23894;51.466;7.444;2023-07-09T07:38:00;9.82;;;6.35;;
38083;SDS011;23894;51.466;7.444;2023-07-09T07:40:02;11.95;;;6.45;;
38083;SDS011;23894;51.466;7.444;2023-07-09T07:42:05;9.32;;;5.53;;
38083;SDS011;23894;51.466;7.444;2023-07-09T07:44:08;9.60;;;5.53;;
38083;SDS011;23894;51.466;7.444;2023-07-09T07:46:10;10.68;;;5.88;;
38083;SDS011;23894;51.466;7.444;2023-07-09T07:48:11;12.30;;;6.07;;
38083;SDS011;23894;51.466;7.444;2023-07-09T07:50:12;11.98;;;5.85;;
38083;SDS011;23894;51.466;7.444;2023-07-09T07:52:13;9.38;;;5.93;;
38083;SDS011;23894;51.466;7.444;2023-07-09T07:54:14;11.82;;;5.95;;
38083;SDS011;23894;51.466;7.444;2023-07-09T07:56:18;9.98;;;5.55;;
38083;SDS011;23894;51.466;7.444;2023-07-09T07:58:19;11.43;;;6.50;;
38083;SDS011;23894;51.466;7.444;2023-07-09T08:00:20;11.32;;;6.05;;
38083;SDS011;23894;51.466;7.444;2023-07-09T08:02:21;14.73;;;6.55;;
38083;SDS011;23894;51.466;7.444;2023-07-09T08:04:22;15.07;;;6.55;;
38083;SDS011;23894;51.466;7.444;2023-07-09T08:06:23;10.88;;;5.95;;
38083;SDS011;23894;51.466;7.444;2023-07-09T08:08:24;12.48;;;6.28;;
38083;SDS011;23894;51.466;7.444;2023-07-09T08:10:24;11.90;;;6.05;;
38083;SDS011;23894;51.466;7.444;2023-07-09T08:12:25;11.00;;;6.35;;
38083;SDS011;23894;51.466;7.444;2023-07-09T08:14:26;10.70;;;6.32;;
38083;SDS011;23894;51.466;7.444;2023-07-09T08:16:30;13.02;;;6.40;;
38083;SDS011;23894;51.466;7.444;2023-07-09T08:18:31;10.35;;;6.32;;
38083;SDS011;23894;51.466;7.444;2023-07-09T08:20:32;11.27;;;5.93;;
38083;SDS011;23894;51.466;7.444;2023-07-09T08:22:33;11.27;;;6.30;;
38083;SDS011;23894;51.466;7.444;2023-07-09T08:24:34;10.07;;;5.90;;
38083;SDS011;23894;51.466;7.444;2023-07-09T08:26:36;12.68;;;5.82;;
38083;SDS011;23894;51.466;7.444;2023-07-09T08:28:38;11.60;;;6.18;;
38083;SDS011;23894;51.466;7.444;2023-07-09T08:30:39;12.07;;;6.30;;
38083;SDS011;23894;51.466;7.444;2023-07-09T08:32:39;11.18;;;6.40;;
38083;SDS011;23894;51.466;7.444;2023-07-09T08:34:40;10.95;;;6.95;;
38083;SDS011;23894;51.466;7.444;2023-07-09T08:36:41;11.02;;;6.80;;
38083;SDS011;23894;51.466;7.444;2023-07-09T08:38:44;11.55;;;6.32;;
38083;SDS011;23894;51.466;7.444;2023-07-09T08:40:50;13.93;;;7.07;;
38083;SDS011;23894;51.466;7.444;2023-07-09T08:42:54;11.30;;;6.20;;
38083;SDS011;23894;51.466;7.444;2023-07-09T08:45:03;13.00;;;7.43;;
38083;SDS011;23894;51.466;7.444;2023-07-09T08:47:14;11.30;;;7.20;;
38083;SDS011;23894;51.466;7.444;2023-07-09T08:49:19;10.73;;;6.22;;
38083;SDS011;23894;51.466;7.444;2023-07-09T08:51:22;11.38;;;6.28;;
38083;SDS011;23894;51.466;7.444;2023-07-09T08:53:33;11.18;;;7.10;;
38083;SDS011;23894;51.466;7.444;2023-07-09T08:55:36;11.75;;;6.03;;
38083;SDS011;23894;51.466;7.444;2023-07-09T08:57:41;11.13;;;6.40;;
38083;SDS011;23894;51.466;7.444;2023-07-09T08:59:43;10.80;;;6.55;;
38083;SDS011;23894;51.466;7.444;2023-07-09T09:01:52;11.85;;;5.75;;
38083;SDS011;23894;51.466;7.444;2023-07-09T09:03:59;11.35;;;6.90;;
38083;SDS011;23894;51.466;7.444;2023-07-09T09:06:01;12.50;;;6.70;;
38083;SDS011;23894;51.466;7.444;2023-07-09T09:08:03;14.32;;;6.35;;
38083;SDS011;23894;51.466;7.444;2023-07-09T09:10:05;11.38;;;6.65;;
38083;SDS011;23894;51.466;7.444;2023-07-09T09:12:16;11.13;;;6.35;;
38083;SDS011;23894;51.466;7.444;2023-07-09T09:14:30;11.32;;;6.25;;
38083;SDS011;23894;51.466;7.444;2023-07-09T09:16:34;10.75;;;6.18;;
38083;SDS011;23894;51.466;7.444;2023-07-09T09:18:37;9.30;;;5.97;;
38083;SDS011;23894;51.466;7.444;2023-07-09T09:20:40;11.60;;;6.30;;
38083;SDS011;23894;51.466;7.444;2023-07-09T09:22:43;10.95;;;6.38;;
38083;SDS011;23894;51.466;7.444;2023-07-09T09:26:46;10.68;;;5.55;;
38083;SDS011;23894;51.466;7.444;2023-07-09T09:28:48;11.50;;;6.20;;
38083;SDS011;23894;51.466;7.444;2023-07-09T09:30:49;10.45;;;6.50;;
38083;SDS011;23894;51.466;7.444;2023-07-09T09:33:06;8.15;;;5.63;;
38083;SDS011;23894;51.466;7.444;2023-07-09T09:35:11;8.27;;;5.63;;
38083;SDS011;23894;51.466;7.444;2023-07-09T09:37:15;10.07;;;5.57;;
38083;SDS011;23894;51.466;7.444;2023-07-09T09:39:24;11.48;;;5.53;;
38083;SDS011;23894;51.466;7.444;2023-07-09T09:41:30;9.10;;;5.05;;
38083;SDS011;23894;51.466;7.444;2023-07-09T09:43:32;8.65;;;5.00;;
38083;SDS011;23894;51.466;7.444;2023-07-09T09:45:34;8.95;;;4.78;;
38083;SDS011;23894;51.466;7.444;2023-07-09T09:47:36;9.63;;;5.10;;
38083;SDS011;23894;51.466;7.444;2023-07-09T09:49:43;11.25;;;4.75;;
38083;SDS011;23894;51.466;7.444;2023-07-09T09:51:45;8.93;;;4.90;;
38083;SDS011;23894;51.466;7.444;2023-07-09T09:53:48;12.07;;;4.72;;
38083;SDS011;23894;51.466;7.444;2023-07-09T09:55:50;11.88;;;5.45;;
38083;SDS011;23894;51.466;7.444;2023-07-09T09:57:53;10.70;;;5.20;;
38083;SDS011;23894;51.466;7.444;2023-07-09T09:59:54;8.95;;;5.13;;
38083;SDS011;23894;51.466;7.444;2023-07-09T10:01:56;8.70;;;4.82;;
38083;SDS011;23894;51.466;7.444;2023-07-09T10:03:59;9.57;;;5.00;;
38083;SDS011;23894;51.466;7.444;2023-07-09T10:06:03;9.43;;;5.00;;
38083;SDS011;23894;51.466;7.444;2023-07-09T10:08:09;8.90;;;4.88;;
38083;SDS011;23894;51.466;7.444;2023-07-09T10:10:15;7.93;;;4.45;;
38083;SDS011;23894;51.466;7.444;2023-07-09T10:14:31;8.23;;;5.07;;
38083;SDS011;23894;51.466;7.444;2023-07-09T10:18:49;9.45;;;4.57;;
38083;SDS011;23894;51.466;7.444;2023-07-09T10:20:55;10.00;;;4.97;;
38083;SDS011;23894;51.466;7.444;2023-07-09T10:25:20;12.10;;;5.15;;
38083;SDS011;23894;51.466;7.444;2023-07-09T10:34:34;10.60;;;4.95;;
38083;SDS011;23894;51.466;7.444;2023-07-09T10:39:00;7.20;;;4.18;;
38083;SDS011;23894;51.466;7.444;2023-07-09T10:41:02;7.95;;;4.22;;
38083;SDS011;23894;51.466;7.444;2023-07-09T10:43:05;7.72;;;4.18;;
38083;SDS011;23894;51.466;7.444;2023-07-09T10:45:11;8.57;;;4.93;;
38083;SDS011;23894;51.466;7.444;2023-07-09T10:47:36;7.65;;;4.25;;
38083;SDS011;23894;51.466;7.444;2023-07-09T10:49:38;9.25;;;4.50;;
38083;SDS011;23894;51.466;7.444;2023-07-09T10:51:48;8.63;;;4.78;;
38083;SDS011;23894;51.466;7.444;2023-07-09T10:56:21;9.23;;;4.40;;
38083;SDS011;23894;51.466;7.444;2023-07-09T11:00:43;9.55;;;4.28;;
38083;SDS011;23894;51.466;7.444;2023-07-09T11:02:44;8.52;;;4.47;;
38083;SDS011;23894;51.466;7.444;2023-07-09T11:05:01;8.68;;;4.57;;
38083;SDS011;23894;51.466;7.444;2023-07-09T11:07:04;8.90;;;4.55;;
38083;SDS011;23894;51.466;7.444;2023-07-09T11:09:54;8.38;;;4.78;;
38083;SDS011;23894;51.466;7.444;2023-07-09T11:11:35;9.07;;;4.57;;
38083;SDS011;23894;51.466;7.444;2023-07-09T11:13:45;7.25;;;3.80;;
38083;SDS011;23894;51.466;7.444;2023-07-09T11:15:49;15.55;;;4.70;;
38083;SDS011;23894;51.466;7.444;2023-07-09T11:17:56;9.85;;;4.38;;
38083;SDS011;23894;51.466;7.444;2023-07-09T11:20:06;7.65;;;4.32;;
38083;SDS011;23894;51.466;7.444;2023-07-09T11:22:23;10.02;;;3.80;;
38083;SDS011;23894;51.466;7.444;2023-07-09T11:24:29;9.90;;;3.67;;
38083;SDS011;23894;51.466;7.444;2023-07-09T11:26:32;7.50;;;3.95;;
38083;SDS011;23894;51.466;7.444;2023-07-09T11:28:35;6.35;;;3.58;;
38083;SDS011;23894;51.466;7.444;2023-07-09T11:30:53;8.63;;;4.47;;
38083;SDS011;23894;51.466;7.444;2023-07-09T11:33:03;7.55;;;3.50;;
38083;SDS011;23894;51.466;7.444;2023-07-09T11:35:07;12.80;;;4.43;;
38083;SDS011;23894;51.466;7.444;2023-07-09T11:37:11;7.18;;;3.45;;
38083;SDS011;23894;51.466;7.444;2023-07-09T11:39:18;6.47;;;3.90;;
38083;SDS011;23894;51.466;7.444;2023-07-09T11:43:46;7.45;;;3.92;;
38083;SDS011;23894;51.466;7.444;2023-07-09T11:45:49;7.93;;;3.88;;
38083;SDS011;23894;51.466;7.444;2023-07-09T11:47:53;6.32;;;3.47;;
38083;SDS011;23894;51.466;7.444;2023-07-09T11:50:10;6.80;;;3.72;;
38083;SDS011;23894;51.466;7.444;2023-07-09T11:52:14;7.95;;;3.50;;
38083;SDS011;23894;51.466;7.444;2023-07-09T11:54:20;6.45;;;3.65;;
38083;SDS011;23894;51.466;7.444;2023-07-09T11:56:22;11.43;;;3.83;;
38083;SDS011;23894;51.466;7.444;2023-07-09T11:58:25;8.23;;;3.50;;
38083;SDS011;23894;51.466;7.444;2023-07-09T12:00:40;7.57;;;3.53;;
38083;SDS011;23894;51.466;7.444;2023-07-09T12:02:46;6.93;;;3.53;;
38083;SDS011;23894;51.466;7.444;2023-07-09T12:04:49;9.00;;;3.55;;
38083;SDS011;23894;51.466;7.444;2023-07-09T12:06:52;6.40;;;3.58;;
38083;SDS011;23894;51.466;7.444;2023-07-09T12:08:55;7.75;;;4.03;;
38083;SDS011;23894;51.466;7.444;2023-07-09T12:10:56;9.27;;;3.40;;
38083;SDS011;23894;51.466;7.444;2023-07-09T12:12:58;7.63;;;3.58;;
38083;SDS011;23894;51.466;7.444;2023-07-09T12:15:04;8.35;;;3.38;;
38083;SDS011;23894;51.466;7.444;2023-07-09T12:17:07;7.00;;;3.42;;
38083;SDS011;23894;51.466;7.444;2023-07-09T12:19:09;8.73;;;3.63;;
38083;SDS011;23894;51.466;7.444;2023-07-09T12:21:11;6.15;;;3.40;;
38083;SDS011;23894;51.466;7.444;2023-07-09T12:23:18;7.40;;;3.33;;
38083;SDS011;23894;51.466;7.444;2023-07-09T12:25:24;10.10;;;3.60;;
38083;SDS011;23894;51.466;7.444;2023-07-09T12:27:27;8.25;;;3.67;;
38083;SDS011;23894;51.466;7.444;2023-07-09T12:29:34;6.60;;;3.08;;
38083;SDS011;23894;51.466;7.444;2023-07-09T12:31:35;8.73;;;3.80;;
38083;SDS011;23894;51.466;7.444;2023-07-09T12:33:36;20.48;;;9.82;;
38083;SDS011;23894;51.466;7.444;2023-07-09T12:35:37;86.07;;;32.75;;
38083;SDS011;23894;51.466;7.444;2023-07-09T12:37:40;96.70;;;37.97;;
38083;SDS011;23894;51.466;7.444;2023-07-09T12:39:43;79.32;;;30.30;;
38083;SDS011;23894;51.466;7.444;2023-07-09T12:41:44;49.50;;;19.30;;
38083;SDS011;23894;51.466;7.444;2023-07-09T12:43:46;39.95;;;17.45;;
38083;SDS011;23894;51.466;7.444;2023-07-09T12:45:47;17.55;;;8.23;;
38083;SDS011;23894;51.466;7.444;2023-07-09T12:47:48;12.13;;;6.03;;
38083;SDS011;23894;51.466;7.444;2023-07-09T12:49:50;18.23;;;8.38;;
38083;SDS011;23894;51.466;7.444;2023-07-09T12:51:55;13.63;;;6.78;;